createdAt,value
2023-04-02T00:00:10.646Z,6.00
2023-04-02T00:03:14.568Z,5.90
2023-04-02T00:06:33.406Z,5.90
2023-04-02T00:09:38.355Z,5.90
2023-04-02T00:12:39.324Z,5.80
2023-04-02T00:15:46.097Z,5.80
2023-04-02T00:18:52.612Z,5.80
2023-04-02T00:21:54.676Z,5.80
2023-04-02T00:24:57.274Z,5.90
2023-04-02T00:27:58.205Z,6.00
2023-04-02T00:31:00.536Z,6.00
2023-04-02T00:34:05.076Z,6.00
2023-04-02T00:37:07.085Z,6.10
2023-04-02T00:40:32.068Z,6.20
2023-04-02T00:43:39.428Z,6.20
2023-04-02T00:46:49.990Z,6.20
2023-04-02T00:50:01.432Z,6.30
2023-04-02T00:53:16.978Z,6.30
2023-04-02T00:56:41.292Z,6.30
2023-04-02T00:59:55.235Z,6.20
2023-04-02T01:03:18.104Z,6.20
2023-04-02T01:06:19.906Z,6.30
2023-04-02T01:09:51.969Z,6.20
2023-04-02T01:13:35.975Z,6.20
2023-04-02T01:17:08.949Z,6.10
2023-04-02T01:20:43.663Z,6.10
2023-04-02T01:23:53.013Z,6.10
2023-04-02T01:27:23.475Z,6.00
2023-04-02T01:30:25.253Z,6.00
2023-04-02T01:33:34.159Z,6.00
2023-04-02T01:37:11.410Z,6.00
2023-04-02T01:40:20.539Z,6.00
2023-04-02T01:43:55.661Z,5.90
2023-04-02T01:47:00.921Z,5.90
2023-04-02T01:50:17.792Z,5.80
2023-04-02T01:53:23.093Z,5.70
2023-04-02T01:56:24.608Z,5.60
2023-04-02T01:59:26.660Z,5.60
2023-04-02T02:02:33.480Z,5.60
2023-04-02T02:05:35.209Z,5.70
2023-04-02T02:08:50.760Z,5.60
2023-04-02T02:11:52.791Z,5.60
2023-04-02T02:14:54.017Z,5.50
2023-04-02T02:18:12.774Z,5.50
2023-04-02T02:21:41.993Z,5.60
2023-04-02T02:24:44.282Z,5.50
2023-04-02T02:27:53.676Z,5.50
2023-04-02T02:31:05.506Z,5.50
2023-04-02T02:34:19.168Z,5.50
2023-04-02T02:37:36.473Z,5.50
2023-04-02T02:40:45.656Z,5.60
2023-04-02T02:44:07.132Z,5.80
2023-04-02T02:47:28.579Z,5.70
2023-04-02T02:50:33.959Z,5.60
2023-04-02T02:53:50.881Z,5.50
2023-04-02T02:57:02.698Z,5.60
2023-04-02T03:00:08.463Z,5.60
2023-04-02T03:03:22.244Z,5.70
2023-04-02T03:06:27.920Z,5.80
2023-04-02T03:10:06.644Z,5.80
2023-04-02T03:13:23.783Z,5.80
2023-04-02T03:16:49.456Z,5.80
2023-04-02T03:19:58.606Z,5.90
2023-04-02T03:23:30.989Z,5.90
2023-04-02T03:26:46.577Z,6.00
2023-04-02T03:30:30.615Z,6.00
2023-04-02T03:33:43.678Z,6.00
2023-04-02T03:37:00.389Z,6.00
2023-04-02T03:40:07.456Z,6.00
2023-04-02T03:43:22.205Z,6.00
2023-04-02T03:46:47.509Z,6.10
2023-04-02T03:50:03.729Z,6.10
2023-04-02T03:53:06.541Z,6.10
2023-04-02T03:56:08.049Z,6.00
2023-04-02T03:59:26.513Z,5.90
2023-04-02T04:02:53.178Z,5.90
2023-04-02T04:06:02.615Z,5.90
2023-04-02T04:09:27.363Z,6.00
2023-04-02T04:12:42.887Z,6.00
2023-04-02T04:15:58.634Z,6.10
2023-04-02T04:19:22.049Z,6.10
2023-04-02T04:22:32.062Z,6.10
2023-04-02T04:25:41.901Z,6.10
2023-04-02T04:29:17.041Z,6.10
2023-04-02T04:32:50.321Z,6.10
2023-04-02T04:36:02.768Z,6.00
2023-04-02T04:39:36.849Z,6.00
2023-04-02T04:42:43.629Z,6.10
2023-04-02T04:45:56.489Z,6.10
2023-04-02T04:49:14.536Z,6.00
2023-04-02T04:52:40.255Z,6.10
2023-04-02T04:55:48.435Z,6.20
2023-04-02T04:59:01.202Z,6.10
2023-04-02T05:02:19.965Z,6.10
2023-04-02T05:05:29.752Z,6.10
2023-04-02T05:08:39.171Z,6.10
2023-04-02T05:12:12.350Z,6.00
2023-04-02T05:15:42.428Z,5.90
2023-04-02T05:18:56.817Z,5.90
2023-04-02T05:22:27.870Z,5.90
2023-04-02T05:25:32.021Z,5.90
2023-04-02T05:28:54.796Z,5.90
2023-04-02T05:32:14.132Z,6.00
2023-04-02T05:35:21.381Z,6.00
2023-04-02T05:38:29.270Z,6.00
2023-04-02T05:41:38.568Z,6.00
2023-04-02T05:44:56.412Z,6.00
2023-04-02T05:48:02.269Z,6.10
2023-04-02T05:51:22.579Z,6.10
2023-04-02T05:54:47.839Z,6.20
2023-04-02T05:58:21.449Z,6.20
2023-04-02T06:01:33.793Z,6.20
2023-04-02T06:05:23.144Z,6.30
2023-04-02T06:08:53.449Z,6.40
2023-04-02T06:12:11.064Z,6.50
2023-04-02T06:15:19.779Z,6.60
2023-04-02T06:18:28.994Z,6.70
2023-04-02T06:21:32.231Z,6.70
2023-04-02T06:24:39.684Z,6.70
2023-04-02T06:27:44.114Z,6.80
2023-04-02T06:30:48.382Z,6.80
2023-04-02T06:33:52.662Z,7.00
2023-04-02T06:37:01.012Z,7.10
2023-04-02T06:40:14.819Z,7.10
2023-04-02T06:43:51.020Z,7.20
2023-04-02T06:47:12.047Z,7.20
2023-04-02T06:50:19.005Z,7.40
2023-04-02T06:53:41.455Z,7.50
2023-04-02T06:56:51.640Z,7.60
2023-04-02T07:00:01.789Z,7.70
2023-04-02T07:03:13.776Z,7.70
2023-04-02T07:06:18.343Z,7.80
2023-04-02T07:09:21.214Z,7.90
2023-04-02T07:12:27.072Z,8.00
2023-04-02T07:15:29.120Z,8.20
2023-04-02T07:18:34.400Z,8.40
2023-04-02T07:21:38.961Z,8.50
2023-04-02T07:24:41.101Z,8.60
2023-04-02T07:27:42.041Z,8.50
2023-04-02T07:30:43.660Z,8.50
2023-04-02T07:33:45.588Z,8.80
2023-04-02T07:36:46.870Z,8.80
2023-04-02T07:39:47.758Z,9.00
2023-04-02T07:42:49.403Z,9.00
2023-04-02T07:45:51.755Z,9.20
2023-04-02T07:48:53.048Z,9.60
2023-04-02T07:51:54.310Z,9.60
2023-04-02T07:54:55.213Z,9.80
2023-04-02T07:57:59.957Z,9.80
2023-04-02T08:01:05.656Z,9.80
2023-04-02T08:04:08.288Z,9.60
2023-04-02T08:07:09.720Z,9.90
2023-04-02T08:10:12.990Z,10.00
2023-04-02T08:13:16.422Z,9.80
2023-04-02T08:16:17.755Z,9.90
2023-04-02T08:19:20.605Z,10.40
2023-04-02T08:22:21.685Z,10.20
2023-04-02T08:25:23.262Z,10.20
2023-04-02T08:28:24.220Z,10.30
2023-04-02T08:31:25.473Z,10.40
2023-04-02T08:34:27.121Z,10.60
2023-04-02T08:37:28.349Z,10.70
2023-04-02T08:40:38.808Z,10.80
2023-04-02T08:43:41.015Z,10.90
2023-04-02T08:46:54.640Z,11.00
2023-04-02T08:50:31.250Z,10.90
2023-04-02T08:53:39.414Z,11.30
2023-04-02T08:56:47.819Z,11.40
2023-04-02T09:00:01.912Z,11.60
2023-04-02T09:03:11.326Z,12.00
2023-04-02T09:06:19.893Z,12.00
2023-04-02T09:09:23.418Z,11.90
2023-04-02T09:12:29.495Z,11.80
2023-04-02T09:15:36.128Z,12.10
2023-04-02T09:18:39.434Z,12.00
2023-04-02T09:22:04.618Z,11.90
2023-04-02T09:25:15.117Z,12.30
2023-04-02T09:28:16.774Z,12.70
2023-04-02T09:31:35.067Z,13.20
2023-04-02T09:34:37.050Z,12.80
2023-04-02T09:37:38.916Z,11.80
2023-04-02T09:40:59.429Z,11.50
2023-04-02T09:44:13.137Z,11.60
2023-04-02T09:47:27.487Z,11.60
2023-04-02T09:50:33.590Z,11.40
2023-04-02T09:53:41.110Z,11.50
2023-04-02T09:57:03.125Z,11.70
2023-04-02T10:00:32.043Z,12.60
2023-04-02T10:03:34.935Z,12.40
2023-04-02T10:06:36.104Z,12.20
2023-04-02T10:09:39.094Z,11.70
2023-04-02T10:12:43.991Z,11.60
2023-04-02T10:16:04.152Z,11.60
2023-04-02T10:19:47.595Z,11.80
2023-04-02T10:22:48.508Z,11.80
2023-04-02T10:26:05.406Z,12.40
2023-04-02T10:29:31.164Z,12.70
2023-04-02T10:32:54.028Z,12.50
2023-04-02T10:36:09.689Z,13.20
2023-04-02T10:39:46.225Z,12.30
2023-04-02T10:43:25.892Z,14.20
2023-04-02T10:46:44.005Z,13.90
2023-04-02T10:50:24.734Z,14.50
2023-04-02T10:53:44.482Z,15.60
2023-04-02T10:56:51.085Z,16.50
2023-04-02T11:00:08.394Z,16.10
2023-04-02T11:03:41.939Z,16.90
2023-04-02T11:06:58.093Z,16.90
2023-04-02T11:10:07.057Z,17.50
2023-04-02T11:13:31.807Z,16.60
2023-04-02T11:16:35.556Z,15.40
2023-04-02T11:19:38.587Z,14.50
2023-04-02T11:22:39.638Z,14.40
2023-04-02T11:25:42.721Z,14.00
2023-04-02T11:28:44.225Z,14.20
2023-04-02T11:31:46.518Z,14.60
2023-04-02T11:34:53.821Z,15.00
2023-04-02T11:38:12.643Z,14.80
2023-04-02T11:41:14.335Z,14.80
2023-04-02T11:44:25.421Z,15.60
2023-04-02T11:47:30.704Z,15.80
2023-04-02T11:50:41.156Z,15.50
2023-04-02T11:53:43.234Z,16.30
2023-04-02T11:57:15.347Z,16.50
2023-04-02T12:00:51.332Z,16.70
2023-04-02T12:04:57.472Z,17.60
2023-04-02T12:08:39.735Z,17.60
2023-04-02T12:11:47.624Z,18.30
2023-04-02T12:14:51.231Z,18.00
2023-04-02T12:17:52.732Z,18.20
2023-04-02T12:20:57.384Z,19.00
2023-04-02T12:24:00.573Z,19.70
2023-04-02T12:27:15.160Z,17.90
2023-04-02T12:30:23.520Z,17.80
2023-04-02T12:33:33.942Z,18.80
2023-04-02T12:36:34.945Z,18.50
2023-04-02T12:39:36.225Z,19.60
2023-04-02T12:42:38.072Z,19.10
2023-04-02T12:45:39.318Z,18.30
2023-04-02T12:48:41.277Z,18.80
2023-04-02T12:51:42.773Z,18.30
2023-04-02T12:54:55.116Z,18.40
2023-04-02T12:58:00.304Z,19.50
2023-04-02T13:01:19.318Z,20.40
2023-04-02T13:04:22.275Z,20.80
2023-04-02T13:07:26.566Z,21.40
2023-04-02T13:10:29.086Z,20.70
2023-04-02T13:13:36.192Z,18.60
2023-04-02T13:16:40.951Z,17.50
2023-04-02T13:19:42.197Z,19.80
2023-04-02T13:22:43.127Z,20.30
2023-04-02T13:25:44.162Z,20.10
2023-04-02T13:29:25.698Z,21.80
2023-04-02T13:32:28.590Z,24.20
2023-04-02T13:35:29.923Z,23.60
2023-04-02T13:38:31.052Z,25.40
2023-04-02T13:41:42.405Z,27.20
2023-04-02T13:44:43.701Z,25.00
2023-04-02T13:47:44.698Z,20.90
2023-04-02T13:50:46.898Z,19.80
2023-04-02T13:53:56.108Z,18.40
2023-04-02T13:56:57.970Z,17.40
2023-04-02T13:59:59.125Z,16.70
2023-04-02T14:03:08.362Z,16.00
2023-04-02T14:06:52.939Z,15.80
2023-04-02T14:10:43.199Z,15.70
2023-04-02T14:14:19.171Z,16.20
2023-04-02T14:17:40.196Z,16.00
2023-04-02T14:21:32.594Z,15.50
2023-04-02T14:25:17.406Z,15.00
2023-04-02T14:28:37.714Z,18.30
2023-04-02T14:31:46.939Z,16.50
2023-04-02T14:35:27.599Z,15.10
2023-04-02T14:38:34.568Z,16.50
2023-04-02T14:42:01.905Z,20.50
2023-04-02T14:45:23.626Z,22.30
2023-04-02T14:48:42.838Z,21.20
2023-04-02T14:52:02.599Z,24.00
2023-04-02T14:55:27.677Z,26.00
2023-04-02T14:58:40.558Z,26.20
2023-04-02T15:01:48.095Z,26.90
2023-04-02T15:05:14.635Z,27.70
2023-04-02T15:08:50.195Z,27.50
2023-04-02T15:12:14.050Z,28.50
2023-04-02T15:15:48.900Z,28.50
2023-04-02T15:18:55.417Z,25.80
2023-04-02T15:22:09.913Z,25.10
2023-04-02T15:25:55.673Z,22.90
2023-04-02T15:29:27.796Z,22.20
2023-04-02T15:32:32.942Z,17.40
2023-04-02T15:35:56.175Z,15.20
2023-04-02T15:39:31.797Z,15.30
2023-04-02T15:42:46.406Z,19.20
2023-04-02T15:46:12.510Z,17.50
2023-04-02T15:49:42.211Z,15.70
2023-04-02T15:52:59.849Z,14.90
2023-04-02T15:56:26.974Z,14.10
2023-04-02T15:59:42.869Z,13.50
2023-04-02T16:03:07.360Z,13.30
2023-04-02T16:06:18.386Z,12.90
2023-04-02T16:09:22.248Z,12.90
2023-04-02T16:12:29.493Z,12.70
2023-04-02T16:15:45.188Z,12.70
2023-04-02T16:19:26.115Z,12.80
2023-04-02T16:22:33.236Z,12.00
2023-04-02T16:26:05.704Z,11.70
2023-04-02T16:29:55.396Z,11.40
2023-04-02T16:33:08.178Z,11.30
2023-04-02T16:36:21.765Z,11.20
2023-04-02T16:39:35.822Z,11.10
2023-04-02T16:42:49.384Z,11.10
2023-04-02T16:46:31.817Z,11.00
2023-04-02T16:50:04.922Z,11.00
2023-04-02T16:53:27.691Z,10.90
2023-04-02T16:57:09.708Z,10.90
2023-04-02T17:00:23.281Z,10.90
2023-04-02T17:04:00.985Z,10.80
2023-04-02T17:07:27.529Z,10.80
2023-04-02T17:11:09.892Z,10.70
2023-04-02T17:14:29.686Z,10.60
2023-04-02T17:17:31.008Z,10.50
2023-04-02T17:20:32.987Z,10.40
2023-04-02T17:23:55.841Z,10.40
2023-04-02T17:27:14.496Z,10.30
2023-04-02T17:30:31.325Z,10.30
2023-04-02T17:33:32.394Z,10.30
2023-04-02T17:37:08.722Z,10.30
2023-04-02T17:40:39.082Z,10.20
2023-04-02T17:44:16.116Z,10.20
2023-04-02T17:48:07.159Z,10.10
2023-04-02T17:51:19.976Z,10.00
2023-04-02T17:54:57.316Z,10.00
2023-04-02T17:58:48.736Z,9.90
2023-04-02T18:02:25.494Z,9.90
2023-04-02T18:05:59.970Z,9.80
2023-04-02T18:09:25.896Z,9.80
2023-04-02T18:12:38.600Z,9.70
2023-04-02T18:15:56.980Z,9.60
2023-04-02T18:19:15.356Z,9.70
2023-04-02T18:22:46.529Z,9.60
2023-04-02T18:26:12.432Z,9.60
2023-04-02T18:29:40.553Z,9.50
2023-04-02T18:33:06.095Z,9.60
2023-04-02T18:36:19.286Z,9.70
2023-04-02T18:39:43.275Z,9.60
2023-04-02T18:43:08.920Z,9.50
2023-04-02T18:46:37.004Z,9.30
2023-04-02T18:50:02.004Z,9.20
2023-04-02T18:53:17.780Z,9.00
2023-04-02T18:56:22.499Z,8.90
2023-04-02T18:59:48.978Z,8.80
2023-04-02T19:03:11.725Z,8.80
2023-04-02T19:06:36.014Z,8.70
2023-04-02T19:09:47.804Z,8.70
2023-04-02T19:12:49.030Z,8.70
2023-04-02T19:16:35.571Z,8.60
2023-04-02T19:20:14.501Z,8.60
2023-04-02T19:24:07.209Z,8.50
2023-04-02T19:27:44.808Z,8.40
2023-04-02T19:32:01.671Z,8.40
2023-04-02T19:35:16.898Z,8.40
2023-04-02T19:38:29.886Z,8.30
2023-04-02T19:41:53.658Z,8.30
2023-04-02T19:44:55.654Z,8.20
2023-04-02T19:48:00.836Z,8.20
2023-04-02T19:51:02.140Z,8.20
2023-04-02T19:54:03.168Z,8.10
2023-04-02T19:57:05.398Z,8.10
2023-04-02T20:00:09.526Z,8.10
2023-04-02T20:03:13.388Z,8.10
2023-04-02T20:06:15.051Z,8.00
2023-04-02T20:09:16.628Z,8.00
2023-04-02T20:12:17.611Z,7.90
2023-04-02T20:15:20.104Z,7.90
2023-04-02T20:18:21.875Z,7.90
2023-04-02T20:21:22.990Z,7.90
2023-04-02T20:24:24.229Z,7.90
2023-04-02T20:27:25.336Z,7.80
2023-04-02T20:30:26.637Z,7.80
2023-04-02T20:33:28.361Z,7.70
2023-04-02T20:36:29.660Z,7.70
2023-04-02T20:39:30.940Z,7.60
2023-04-02T20:42:32.624Z,7.50
2023-04-02T20:45:33.789Z,7.50
2023-04-02T20:48:36.576Z,7.40
2023-04-02T20:51:37.798Z,7.40
2023-04-02T20:54:39.074Z,7.30
2023-04-02T20:57:39.888Z,7.30
2023-04-02T21:00:40.791Z,7.20
2023-04-02T21:03:42.760Z,7.20
2023-04-02T21:06:43.768Z,7.20
2023-04-02T21:09:44.838Z,7.20
2023-04-02T21:12:45.826Z,7.20
2023-04-02T21:15:46.957Z,7.20
2023-04-02T21:18:51.946Z,7.10
2023-04-02T21:21:55.422Z,7.10
2023-04-02T21:24:56.275Z,7.10
2023-04-02T21:27:57.640Z,7.00
2023-04-02T21:31:11.003Z,7.00
2023-04-02T21:34:17.416Z,6.90
2023-04-02T21:37:18.520Z,6.80
2023-04-02T21:40:19.619Z,6.80
2023-04-02T21:43:20.923Z,6.70
2023-04-02T21:46:29.281Z,6.70
2023-04-02T21:49:30.528Z,6.70
2023-04-02T21:52:31.393Z,6.70
2023-04-02T21:55:32.402Z,6.70
2023-04-02T21:58:33.953Z,6.60
2023-04-02T22:01:39.782Z,6.50
2023-04-02T22:04:41.602Z,6.50
2023-04-02T22:07:42.333Z,6.40
2023-04-02T22:10:43.049Z,6.40
2023-04-02T22:13:47.037Z,6.40
2023-04-02T22:16:48.115Z,6.30
2023-04-02T22:19:49.300Z,6.20
2023-04-02T22:22:51.652Z,6.10
2023-04-02T22:25:54.647Z,6.00
2023-04-02T22:28:56.210Z,6.00
2023-04-02T22:31:57.290Z,5.90
2023-04-02T22:34:58.507Z,5.80
2023-04-02T22:37:59.468Z,5.80
2023-04-02T22:41:16.493Z,5.70
2023-04-02T22:44:17.599Z,5.70
2023-04-02T22:47:18.811Z,5.60
2023-04-02T22:50:20.292Z,5.60
2023-04-02T22:53:21.790Z,5.60
2023-04-02T22:56:27.870Z,5.50
2023-04-02T22:59:28.798Z,5.40
2023-04-02T23:02:29.747Z,5.40
2023-04-02T23:05:31.308Z,5.30
2023-04-02T23:08:32.374Z,5.30
2023-04-02T23:11:33.653Z,5.30
2023-04-02T23:14:35.091Z,5.20
2023-04-02T23:17:37.865Z,5.20
2023-04-02T23:20:40.932Z,5.20
2023-04-02T23:23:42.414Z,5.30
2023-04-02T23:26:43.224Z,5.20
2023-04-02T23:29:44.526Z,5.20
2023-04-02T23:32:45.922Z,5.10
2023-04-02T23:35:47.346Z,5.10
2023-04-02T23:38:48.786Z,5.00
2023-04-02T23:41:50.060Z,5.00
2023-04-02T23:44:51.355Z,4.90
2023-04-02T23:47:52.125Z,4.90
2023-04-02T23:50:53.497Z,4.90
2023-04-02T23:53:55.756Z,4.90
2023-04-02T23:56:56.788Z,4.80
2023-04-02T23:59:58.004Z,4.80
